Zion, Illinois
Current Conditions -  °F | °C
As of 4:55 AM on Friday 24 Oct 2014 (Local Time) from KUGN Reporting Station
Few Clouds Few Clouds  
Wind Chill: 43°   Ceiling: Unl
Heat Index: 43°   Visibility: 7mi
Dew Point: 42°   Wind: 3mph
Humidity: 97%   Direction: 280°W
Pressure: 30.05"   Gusts: NA
Location:  42.44°N, 87.82°W
Report Text: KUGN 240955Z AUTO 28003KT 7SM FEW034 06/06 A3005 RMK AO2 SLP177 T00610056
Loading
Personal Weather Stations






























Interactive Weather Map
Tropical Storm Tracking
New forecast layout! Learn more

10-Day Weather Forecast

Advertisements
Track Severe Weather on mobile